Langruth, Canada
Current Conditions -  °F | °C
As of 1:00 PM on Sunday 21 Dec 2014 (Local Time) from CYBR Reporting Station
Moderate Fog Moderate Fog  
Wind Chill: 20°   Ceiling: 100
Heat Index: 27°   Visibility: 0.12mi
Dew Point: 27°   Wind: 6mph
Humidity: 100%   Direction: 140°SE
Pressure: 29.52"   Gusts: NA
Location:  50.38°N, 98.67°W
Report Text: CYBR 211900Z 14005KT 1/8SM FZFG VV001 M03/M03 A2952 RMK FG8 SLP019
Loading
Personal Weather Stations






























Interactive Weather Map New forecast layout! Learn more

10-Day Weather Forecast

Advertisements
Track Severe Weather on mobile